INFORMACIÓN METAR y TAF
METAR FOR WABB
ADDS - METARS form results

(0849 UTC 15 April 2021)
Data provider http://aviationweather.gov/metar/data/
 
Forecast for: WABB (BIAK/FRANS KAISI, ID)
Text: TAF WABB 150500Z 1506/1612 22011KT 9999 SCT018
Forecast period: 0600 UTC 15 April 2021 to 1200 UTC 16 April 2021
Forecast type: FROM: standard forecast or significant change
Winds: from the SW (220 degrees) at 13 MPH (11 knots; 5.7 m/s)
Visibility: 6 or more miles (10+ km)
Ceiling: at least 12,000 feet AGL
Clouds: scattered clouds at 1800 feet AGL
Weather: no significant weather forecast for this period

 MAPA DE AEROPUERTO

 INFORMACIÓN DE PISTA
Pista 11 Longitud 11715 ft Ancho 150 ft
Elevación 36 ft Umbral desplazado 0 ft Rumbo de pista 109
Pista 29 Longitud 11715 ft Ancho 150 ft
Elevación 25 ft Umbral desplazado 0 ft Rumbo de pista 289

 FRECUANCIAS DEL AEROPUERTO
Tipo APP Nombre BIAK APP Frecuencia 121.2 MHZ
Tipo ATIS Nombre ATIS Frecuencia 126.5 MHZ
Tipo INFO Nombre BIAK INFO Frecuencia 295.6 MHZ
Tipo TWR Nombre TWR Frecuencia 118.1 MHZ

 RADIO AYUDAS DEL AEROPUERTO
Tipo VOR-DME Nombre Biak Frecuencia 112500 KHZ
Tipo NDB Nombre Biak Frecuencia 230 KHZ



Powered by Virtual Airlines Manager [v2.6.2]